sensor_id;sensor_type;location;lat;lon;timestamp;temperature;humidity
7646;DHT22;3864;48.180;14.178;2022-11-09T00:01:26;5.60;99.90
7646;DHT22;3864;48.180;14.178;2022-11-09T00:03:54;5.60;99.90
7646;DHT22;3864;48.180;14.178;2022-11-09T00:06:22;5.60;99.90
7646;DHT22;3864;48.180;14.178;2022-11-09T00:08:51;5.60;99.90
7646;DHT22;3864;48.180;14.178;2022-11-09T00:11:19;5.50;99.90
7646;DHT22;3864;48.180;14.178;2022-11-09T00:13:47;5.50;99.90
7646;DHT22;3864;48.180;14.178;2022-11-09T00:16:16;5.50;99.90
7646;DHT22;3864;48.180;14.178;2022-11-09T00:18:44;5.50;99.90
7646;DHT22;3864;48.180;14.178;2022-11-09T00:21:14;5.50;99.90
7646;DHT22;3864;48.180;14.178;2022-11-09T00:23:42;5.50;99.90
7646;DHT22;3864;48.180;14.178;2022-11-09T00:26:13;5.50;99.90
7646;DHT22;3864;48.180;14.178;2022-11-09T00:28:41;5.50;99.90
7646;DHT22;3864;48.180;14.178;2022-11-09T00:31:11;5.50;99.90
7646;DHT22;3864;48.180;14.178;2022-11-09T00:33:39;5.50;99.90
7646;DHT22;3864;48.180;14.178;2022-11-09T00:36:09;5.50;99.90
7646;DHT22;3864;48.180;14.178;2022-11-09T00:38:37;5.50;99.90
7646;DHT22;3864;48.180;14.178;2022-11-09T00:41:09;5.40;99.90
7646;DHT22;3864;48.180;14.178;2022-11-09T00:43:38;5.40;99.90
7646;DHT22;3864;48.180;14.178;2022-11-09T00:46:06;5.40;99.90
7646;DHT22;3864;48.180;14.178;2022-11-09T00:48:34;5.30;99.90
7646;DHT22;3864;48.180;14.178;2022-11-09T00:51:04;5.30;99.90
7646;DHT22;3864;48.180;14.178;2022-11-09T00:53:32;5.30;99.90
7646;DHT22;3864;48.180;14.178;2022-11-09T00:56:02;5.30;99.90
7646;DHT22;3864;48.180;14.178;2022-11-09T00:58:31;5.30;99.90
7646;DHT22;3864;48.180;14.178;2022-11-09T01:01:05;5.30;99.90
7646;DHT22;3864;48.180;14.178;2022-11-09T01:03:33;5.30;99.90
7646;DHT22;3864;48.180;14.178;2022-11-09T01:06:01;5.30;99.90
7646;DHT22;3864;48.180;14.178;2022-11-09T01:08:29;5.40;99.90
7646;DHT22;3864;48.180;14.178;2022-11-09T01:10:57;5.40;99.90
7646;DHT22;3864;48.180;14.178;2022-11-09T01:13:25;5.30;99.90
7646;DHT22;3864;48.180;14.178;2022-11-09T01:15:52;5.30;99.90
7646;DHT22;3864;48.180;14.178;2022-11-09T01:18:21;5.30;99.90
7646;DHT22;3864;48.180;14.178;2022-11-09T01:20:49;5.30;99.90
7646;DHT22;3864;48.180;14.178;2022-11-09T01:23:18;5.30;99.90
7646;DHT22;3864;48.180;14.178;2022-11-09T01:25:46;5.20;99.90
7646;DHT22;3864;48.180;14.178;2022-11-09T01:28:13;5.20;99.90
7646;DHT22;3864;48.180;14.178;2022-11-09T01:30:49;5.20;99.90
7646;DHT22;3864;48.180;14.178;2022-11-09T01:33:18;5.20;99.90
7646;DHT22;3864;48.180;14.178;2022-11-09T01:35:50;5.20;99.90
7646;DHT22;3864;48.180;14.178;2022-11-09T01:38:18;5.20;99.90
7646;DHT22;3864;48.180;14.178;2022-11-09T01:40:45;5.20;99.90
7646;DHT22;3864;48.180;14.178;2022-11-09T01:43:16;5.20;99.90
7646;DHT22;3864;48.180;14.178;2022-11-09T01:45:47;5.20;99.90
7646;DHT22;3864;48.180;14.178;2022-11-09T01:48:17;5.10;99.90
7646;DHT22;3864;48.180;14.178;2022-11-09T01:50:52;5.10;99.90
7646;DHT22;3864;48.180;14.178;2022-11-09T01:53:29;5.10;99.90
7646;DHT22;3864;48.180;14.178;2022-11-09T01:55:59;5.10;99.90
7646;DHT22;3864;48.180;14.178;2022-11-09T01:58:31;5.10;99.90
7646;DHT22;3864;48.180;14.178;2022-11-09T02:01:00;5.00;99.90
7646;DHT22;3864;48.180;14.178;2022-11-09T02:03:30;5.00;99.90
7646;DHT22;3864;48.180;14.178;2022-11-09T02:06:03;5.00;99.90
7646;DHT22;3864;48.180;14.178;2022-11-09T02:08:31;5.00;99.90
7646;DHT22;3864;48.180;14.178;2022-11-09T02:11:03;5.00;99.90
7646;DHT22;3864;48.180;14.178;2022-11-09T02:13:34;5.00;99.90
7646;DHT22;3864;48.180;14.178;2022-11-09T02:16:02;4.90;99.90
7646;DHT22;3864;48.180;14.178;2022-11-09T02:18:30;4.90;99.90
7646;DHT22;3864;48.180;14.178;2022-11-09T02:21:01;4.90;99.90
7646;DHT22;3864;48.180;14.178;2022-11-09T02:23:28;4.90;99.90
7646;DHT22;3864;48.180;14.178;2022-11-09T02:26:00;4.90;99.90
7646;DHT22;3864;48.180;14.178;2022-11-09T02:28:30;4.90;99.90
7646;DHT22;3864;48.180;14.178;2022-11-09T02:30:58;4.90;99.90
7646;DHT22;3864;48.180;14.178;2022-11-09T02:33:26;5.00;99.90
7646;DHT22;3864;48.180;14.178;2022-11-09T02:35:53;5.00;99.90
7646;DHT22;3864;48.180;14.178;2022-11-09T02:38:23;5.00;99.90
7646;DHT22;3864;48.180;14.178;2022-11-09T02:40:51;5.00;99.90
7646;DHT22;3864;48.180;14.178;2022-11-09T02:43:19;5.00;99.90
7646;DHT22;3864;48.180;14.178;2022-11-09T02:45:47;5.00;99.90
7646;DHT22;3864;48.180;14.178;2022-11-09T02:48:14;5.00;99.90
7646;DHT22;3864;48.180;14.178;2022-11-09T02:50:42;5.00;99.90
7646;DHT22;3864;48.180;14.178;2022-11-09T02:53:10;5.00;99.90
7646;DHT22;3864;48.180;14.178;2022-11-09T02:55:39;4.90;99.90
7646;DHT22;3864;48.180;14.178;2022-11-09T02:58:06;4.90;99.90
7646;DHT22;3864;48.180;14.178;2022-11-09T03:00:39;4.90;99.90
7646;DHT22;3864;48.180;14.178;2022-11-09T03:03:07;4.90;99.90
7646;DHT22;3864;48.180;14.178;2022-11-09T03:05:36;4.90;99.90
7646;DHT22;3864;48.180;14.178;2022-11-09T03:08:04;4.90;99.90
7646;DHT22;3864;48.180;14.178;2022-11-09T03:10:31;4.80;99.90
7646;DHT22;3864;48.180;14.178;2022-11-09T03:13:02;4.80;99.90
7646;DHT22;3864;48.180;14.178;2022-11-09T03:15:29;4.80;99.90
7646;DHT22;3864;48.180;14.178;2022-11-09T03:17:57;4.80;99.90
7646;DHT22;3864;48.180;14.178;2022-11-09T03:20:25;4.80;99.90
7646;DHT22;3864;48.180;14.178;2022-11-09T03:22:57;4.80;99.90
7646;DHT22;3864;48.180;14.178;2022-11-09T03:25:26;4.80;99.90
7646;DHT22;3864;48.180;14.178;2022-11-09T03:27:56;4.80;99.90
7646;DHT22;3864;48.180;14.178;2022-11-09T03:31:01;4.90;99.90
7646;DHT22;3864;48.180;14.178;2022-11-09T03:33:45;4.90;99.90
7646;DHT22;3864;48.180;14.178;2022-11-09T03:36:13;4.90;99.90
7646;DHT22;3864;48.180;14.178;2022-11-09T03:38:40;4.90;99.90
7646;DHT22;3864;48.180;14.178;2022-11-09T03:41:08;5.00;99.90
7646;DHT22;3864;48.180;14.178;2022-11-09T03:43:35;5.00;99.90
7646;DHT22;3864;48.180;14.178;2022-11-09T03:46:05;5.00;99.90
7646;DHT22;3864;48.180;14.178;2022-11-09T03:48:32;5.00;99.90
7646;DHT22;3864;48.180;14.178;2022-11-09T03:50:59;5.00;99.90
7646;DHT22;3864;48.180;14.178;2022-11-09T03:53:27;5.00;99.90
7646;DHT22;3864;48.180;14.178;2022-11-09T03:55:56;4.90;99.90
7646;DHT22;3864;48.180;14.178;2022-11-09T03:58:23;4.90;99.90
7646;DHT22;3864;48.180;14.178;2022-11-09T04:00:51;4.90;99.90
7646;DHT22;3864;48.180;14.178;2022-11-09T04:03:20;4.80;99.90
7646;DHT22;3864;48.180;14.178;2022-11-09T04:05:47;4.80;99.90
7646;DHT22;3864;48.180;14.178;2022-11-09T04:08:15;4.80;99.90
7646;DHT22;3864;48.180;14.178;2022-11-09T04:10:42;4.80;99.90
7646;DHT22;3864;48.180;14.178;2022-11-09T04:13:10;4.80;99.90
7646;DHT22;3864;48.180;14.178;2022-11-09T04:15:37;4.80;99.90
7646;DHT22;3864;48.180;14.178;2022-11-09T04:18:07;4.80;99.90
7646;DHT22;3864;48.180;14.178;2022-11-09T04:20:38;4.80;99.90
7646;DHT22;3864;48.180;14.178;2022-11-09T04:23:06;4.80;99.90
7646;DHT22;3864;48.180;14.178;2022-11-09T04:25:35;4.80;99.90
7646;DHT22;3864;48.180;14.178;2022-11-09T04:28:05;4.80;99.90
7646;DHT22;3864;48.180;14.178;2022-11-09T04:30:34;4.80;99.90
7646;DHT22;3864;48.180;14.178;2022-11-09T04:33:03;4.80;99.90
7646;DHT22;3864;48.180;14.178;2022-11-09T04:35:32;4.80;99.90
7646;DHT22;3864;48.180;14.178;2022-11-09T04:38:03;4.80;99.90
7646;DHT22;3864;48.180;14.178;2022-11-09T04:40:32;4.90;99.90
7646;DHT22;3864;48.180;14.178;2022-11-09T04:43:00;4.90;99.90
7646;DHT22;3864;48.180;14.178;2022-11-09T04:45:28;4.90;99.90
7646;DHT22;3864;48.180;14.178;2022-11-09T04:47:56;4.90;99.90
7646;DHT22;3864;48.180;14.178;2022-11-09T04:50:25;4.90;99.90
7646;DHT22;3864;48.180;14.178;2022-11-09T04:52:52;4.90;99.90
7646;DHT22;3864;48.180;14.178;2022-11-09T04:55:22;4.80;99.90
7646;DHT22;3864;48.180;14.178;2022-11-09T04:57:49;4.80;99.90
7646;DHT22;3864;48.180;14.178;2022-11-09T05:00:17;4.80;99.90
7646;DHT22;3864;48.180;14.178;2022-11-09T05:02:45;4.90;99.90
7646;DHT22;3864;48.180;14.178;2022-11-09T05:05:12;4.90;99.90
7646;DHT22;3864;48.180;14.178;2022-11-09T05:07:40;4.80;99.90
7646;DHT22;3864;48.180;14.178;2022-11-09T05:10:08;4.80;99.90
7646;DHT22;3864;48.180;14.178;2022-11-09T05:12:38;4.80;99.90
7646;DHT22;3864;48.180;14.178;2022-11-09T05:15:12;4.80;99.90
7646;DHT22;3864;48.180;14.178;2022-11-09T05:17:41;4.80;99.90
7646;DHT22;3864;48.180;14.178;2022-11-09T05:20:10;4.80;99.90
7646;DHT22;3864;48.180;14.178;2022-11-09T05:22:41;4.80;99.90
7646;DHT22;3864;48.180;14.178;2022-11-09T05:25:25;4.70;99.90
7646;DHT22;3864;48.180;14.178;2022-11-09T05:27:55;4.70;99.90
7646;DHT22;3864;48.180;14.178;2022-11-09T05:30:22;4.70;99.90
7646;DHT22;3864;48.180;14.178;2022-11-09T05:32:50;4.70;99.90
7646;DHT22;3864;48.180;14.178;2022-11-09T05:35:18;4.80;99.90
7646;DHT22;3864;48.180;14.178;2022-11-09T05:37:46;4.80;99.90
7646;DHT22;3864;48.180;14.178;2022-11-09T05:40:15;4.80;99.90
7646;DHT22;3864;48.180;14.178;2022-11-09T05:42:43;4.80;99.90
7646;DHT22;3864;48.180;14.178;2022-11-09T05:45:14;4.80;99.90
7646;DHT22;3864;48.180;14.178;2022-11-09T05:47:43;4.90;99.90
7646;DHT22;3864;48.180;14.178;2022-11-09T05:50:14;4.90;99.90
7646;DHT22;3864;48.180;14.178;2022-11-09T05:52:42;4.90;99.90
7646;DHT22;3864;48.180;14.178;2022-11-09T05:55:09;4.80;99.90
7646;DHT22;3864;48.180;14.178;2022-11-09T05:57:36;4.80;99.90
7646;DHT22;3864;48.180;14.178;2022-11-09T06:00:05;4.80;99.90
7646;DHT22;3864;48.180;14.178;2022-11-09T06:02:34;4.80;99.90
7646;DHT22;3864;48.180;14.178;2022-11-09T06:05:02;4.80;99.90
7646;DHT22;3864;48.180;14.178;2022-11-09T06:07:30;4.80;99.90
7646;DHT22;3864;48.180;14.178;2022-11-09T06:09:58;4.80;99.90
7646;DHT22;3864;48.180;14.178;2022-11-09T06:12:26;4.80;99.90
7646;DHT22;3864;48.180;14.178;2022-11-09T06:14:53;4.80;99.90
7646;DHT22;3864;48.180;14.178;2022-11-09T06:17:21;4.80;99.90
7646;DHT22;3864;48.180;14.178;2022-11-09T06:19:59;4.70;99.90
7646;DHT22;3864;48.180;14.178;2022-11-09T06:22:26;4.80;99.90
7646;DHT22;3864;48.180;14.178;2022-11-09T06:24:54;4.80;99.90
7646;DHT22;3864;48.180;14.178;2022-11-09T06:27:22;4.90;99.90
7646;DHT22;3864;48.180;14.178;2022-11-09T06:29:49;4.80;99.90
7646;DHT22;3864;48.180;14.178;2022-11-09T06:32:17;4.80;99.90
7646;DHT22;3864;48.180;14.178;2022-11-09T06:34:44;4.80;99.90
7646;DHT22;3864;48.180;14.178;2022-11-09T06:37:16;4.80;99.90
7646;DHT22;3864;48.180;14.178;2022-11-09T06:39:43;4.80;99.90
7646;DHT22;3864;48.180;14.178;2022-11-09T06:42:12;4.80;99.90
7646;DHT22;3864;48.180;14.178;2022-11-09T06:44:40;4.80;99.90
7646;DHT22;3864;48.180;14.178;2022-11-09T06:47:07;4.80;99.90
7646;DHT22;3864;48.180;14.178;2022-11-09T06:49:35;4.90;99.90
7646;DHT22;3864;48.180;14.178;2022-11-09T06:52:03;4.90;99.90
7646;DHT22;3864;48.180;14.178;2022-11-09T06:54:52;4.90;99.90
7646;DHT22;3864;48.180;14.178;2022-11-09T06:57:20;4.90;99.90
7646;DHT22;3864;48.180;14.178;2022-11-09T06:59:55;4.80;99.90
7646;DHT22;3864;48.180;14.178;2022-11-09T07:02:32;4.80;99.90
7646;DHT22;3864;48.180;14.178;2022-11-09T07:05:11;4.80;99.90
7646;DHT22;3864;48.180;14.178;2022-11-09T07:07:55;4.80;99.90
7646;DHT22;3864;48.180;14.178;2022-11-09T07:10:41;4.80;99.90
7646;DHT22;3864;48.180;14.178;2022-11-09T07:13:18;4.90;99.90
7646;DHT22;3864;48.180;14.178;2022-11-09T07:15:51;4.90;99.90
7646;DHT22;3864;48.180;14.178;2022-11-09T07:18:21;4.90;99.90
7646;DHT22;3864;48.180;14.178;2022-11-09T07:21:04;4.90;99.90
7646;DHT22;3864;48.180;14.178;2022-11-09T07:23:34;4.90;99.90
7646;DHT22;3864;48.180;14.178;2022-11-09T07:26:15;4.90;99.90
7646;DHT22;3864;48.180;14.178;2022-11-09T07:28:46;4.90;99.90
7646;DHT22;3864;48.180;14.178;2022-11-09T07:31:14;4.90;99.90
7646;DHT22;3864;48.180;14.178;2022-11-09T07:33:43;4.90;99.90
7646;DHT22;3864;48.180;14.178;2022-11-09T07:36:11;4.90;99.90
7646;DHT22;3864;48.180;14.178;2022-11-09T07:38:38;4.90;99.90
7646;DHT22;3864;48.180;14.178;2022-11-09T07:41:08;5.00;99.90
7646;DHT22;3864;48.180;14.178;2022-11-09T07:43:35;5.00;99.90
7646;DHT22;3864;48.180;14.178;2022-11-09T07:46:03;5.10;99.90
7646;DHT22;3864;48.180;14.178;2022-11-09T07:48:31;5.00;99.90
7646;DHT22;3864;48.180;14.178;2022-11-09T07:51:00;5.00;99.90
7646;DHT22;3864;48.180;14.178;2022-11-09T07:53:27;4.90;99.90
7646;DHT22;3864;48.180;14.178;2022-11-09T07:55:56;5.00;99.90
7646;DHT22;3864;48.180;14.178;2022-11-09T07:58:28;5.00;99.90
7646;DHT22;3864;48.180;14.178;2022-11-09T08:00:56;5.10;99.90
7646;DHT22;3864;48.180;14.178;2022-11-09T08:03:24;5.20;99.90
7646;DHT22;3864;48.180;14.178;2022-11-09T08:05:55;5.30;99.90
7646;DHT22;3864;48.180;14.178;2022-11-09T08:08:27;5.40;99.90
7646;DHT22;3864;48.180;14.178;2022-11-09T08:10:58;5.40;99.90
7646;DHT22;3864;48.180;14.178;2022-11-09T08:13:27;5.50;99.90
7646;DHT22;3864;48.180;14.178;2022-11-09T08:15:54;5.50;99.90
7646;DHT22;3864;48.180;14.178;2022-11-09T08:18:22;5.50;99.90
7646;DHT22;3864;48.180;14.178;2022-11-09T08:20:49;5.50;99.90
7646;DHT22;3864;48.180;14.178;2022-11-09T08:23:18;5.50;99.90
7646;DHT22;3864;48.180;14.178;2022-11-09T08:25:46;5.40;99.90
7646;DHT22;3864;48.180;14.178;2022-11-09T08:28:14;5.40;99.90
7646;DHT22;3864;48.180;14.178;2022-11-09T08:30:44;5.40;99.90
7646;DHT22;3864;48.180;14.178;2022-11-09T08:33:12;5.40;99.90
7646;DHT22;3864;48.180;14.178;2022-11-09T08:35:39;5.50;99.90
7646;DHT22;3864;48.180;14.178;2022-11-09T08:38:08;5.50;99.90
7646;DHT22;3864;48.180;14.178;2022-11-09T08:40:35;5.50;99.90
7646;DHT22;3864;48.180;14.178;2022-11-09T08:43:04;5.60;99.90
7646;DHT22;3864;48.180;14.178;2022-11-09T08:45:38;5.60;99.90
7646;DHT22;3864;48.180;14.178;2022-11-09T08:48:10;5.70;99.90
7646;DHT22;3864;48.180;14.178;2022-11-09T08:50:38;5.80;99.90
7646;DHT22;3864;48.180;14.178;2022-11-09T08:53:09;5.80;99.90
7646;DHT22;3864;48.180;14.178;2022-11-09T08:55:36;5.70;99.90
7646;DHT22;3864;48.180;14.178;2022-11-09T08:58:04;5.80;99.90
7646;DHT22;3864;48.180;14.178;2022-11-09T09:00:31;5.90;99.90
7646;DHT22;3864;48.180;14.178;2022-11-09T09:03:02;5.90;99.90
7646;DHT22;3864;48.180;14.178;2022-11-09T09:05:36;6.00;99.90
7646;DHT22;3864;48.180;14.178;2022-11-09T09:08:05;6.20;99.90
7646;DHT22;3864;48.180;14.178;2022-11-09T09:10:38;6.20;99.90
7646;DHT22;3864;48.180;14.178;2022-11-09T09:13:06;6.10;99.90
7646;DHT22;3864;48.180;14.178;2022-11-09T09:15:33;6.10;99.90
7646;DHT22;3864;48.180;14.178;2022-11-09T09:18:02;6.10;99.90
7646;DHT22;3864;48.180;14.178;2022-11-09T09:23:27;5.90;99.90
7646;DHT22;3864;48.180;14.178;2022-11-09T09:25:56;5.90;99.90
7646;DHT22;3864;48.180;14.178;2022-11-09T09:28:23;5.90;99.90
7646;DHT22;3864;48.180;14.178;2022-11-09T09:30:56;6.00;99.90
7646;DHT22;3864;48.180;14.178;2022-11-09T09:33:24;6.10;99.90
7646;DHT22;3864;48.180;14.178;2022-11-09T09:35:55;6.20;99.90
7646;DHT22;3864;48.180;14.178;2022-11-09T09:38:24;6.30;99.90
7646;DHT22;3864;48.180;14.178;2022-11-09T09:40:58;6.40;99.90
7646;DHT22;3864;48.180;14.178;2022-11-09T09:43:30;6.50;99.90
7646;DHT22;3864;48.180;14.178;2022-11-09T09:46:01;6.70;99.90
7646;DHT22;3864;48.180;14.178;2022-11-09T09:48:35;6.80;99.90
7646;DHT22;3864;48.180;14.178;2022-11-09T09:51:10;6.90;99.90
7646;DHT22;3864;48.180;14.178;2022-11-09T09:57:17;7.00;99.90
7646;DHT22;3864;48.180;14.178;2022-11-09T09:59:48;6.90;99.90
7646;DHT22;3864;48.180;14.178;2022-11-09T10:02:21;6.90;99.90
7646;DHT22;3864;48.180;14.178;2022-11-09T10:04:49;6.90;99.90
7646;DHT22;3864;48.180;14.178;2022-11-09T10:07:23;6.90;99.90
7646;DHT22;3864;48.180;14.178;2022-11-09T10:10:15;6.90;99.90
7646;DHT22;3864;48.180;14.178;2022-11-09T10:13:10;6.90;99.90
7646;DHT22;3864;48.180;14.178;2022-11-09T10:15:44;6.90;99.90
7646;DHT22;3864;48.180;14.178;2022-11-09T10:18:30;7.20;99.90
7646;DHT22;3864;48.180;14.178;2022-11-09T10:21:22;7.20;99.90
7646;DHT22;3864;48.180;14.178;2022-11-09T10:24:05;7.10;99.90
7646;DHT22;3864;48.180;14.178;2022-11-09T10:26:42;7.10;99.90
7646;DHT22;3864;48.180;14.178;2022-11-09T10:29:22;7.30;99.90
7646;DHT22;3864;48.180;14.178;2022-11-09T10:31:52;7.30;99.90
7646;DHT22;3864;48.180;14.178;2022-11-09T10:34:23;7.40;99.90
7646;DHT22;3864;48.180;14.178;2022-11-09T10:36:58;7.50;99.90
7646;DHT22;3864;48.180;14.178;2022-11-09T10:39:38;7.60;99.90
7646;DHT22;3864;48.180;14.178;2022-11-09T10:42:09;7.70;99.90
7646;DHT22;3864;48.180;14.178;2022-11-09T10:44:39;7.60;99.90
7646;DHT22;3864;48.180;14.178;2022-11-09T10:47:08;7.40;99.90
7646;DHT22;3864;48.180;14.178;2022-11-09T10:49:38;7.30;99.90
7646;DHT22;3864;48.180;14.178;2022-11-09T10:52:37;7.20;99.90
7646;DHT22;3864;48.180;14.178;2022-11-09T10:55:23;7.10;99.90
7646;DHT22;3864;48.180;14.178;2022-11-09T10:57:57;7.20;99.90
7646;DHT22;3864;48.180;14.178;2022-11-09T11:00:27;7.30;99.90
7646;DHT22;3864;48.180;14.178;2022-11-09T11:02:55;7.40;99.90
7646;DHT22;3864;48.180;14.178;2022-11-09T11:05:29;7.40;99.90
7646;DHT22;3864;48.180;14.178;2022-11-09T11:07:57;7.30;99.90
7646;DHT22;3864;48.180;14.178;2022-11-09T11:10:24;7.20;99.90
7646;DHT22;3864;48.180;14.178;2022-11-09T11:13:22;7.30;99.90
7646;DHT22;3864;48.180;14.178;2022-11-09T11:15:52;7.10;99.90
7646;DHT22;3864;48.180;14.178;2022-11-09T11:18:23;7.20;99.90
7646;DHT22;3864;48.180;14.178;2022-11-09T11:21:12;7.30;99.90
7646;DHT22;3864;48.180;14.178;2022-11-09T11:23:40;7.40;99.90
7646;DHT22;3864;48.180;14.178;2022-11-09T11:26:26;7.50;99.90
7646;DHT22;3864;48.180;14.178;2022-11-09T11:28:59;7.50;99.90
7646;DHT22;3864;48.180;14.178;2022-11-09T11:31:29;7.50;99.90
7646;DHT22;3864;48.180;14.178;2022-11-09T11:33:57;7.50;99.90
7646;DHT22;3864;48.180;14.178;2022-11-09T11:36:35;7.40;99.90
7646;DHT22;3864;48.180;14.178;2022-11-09T11:39:14;7.40;99.90
7646;DHT22;3864;48.180;14.178;2022-11-09T11:42:01;7.60;99.90
7646;DHT22;3864;48.180;14.178;2022-11-09T11:45:06;7.70;99.90
7646;DHT22;3864;48.180;14.178;2022-11-09T11:48:31;7.80;99.90
7646;DHT22;3864;48.180;14.178;2022-11-09T11:51:03;7.90;99.90
7646;DHT22;3864;48.180;14.178;2022-11-09T11:53:48;7.90;99.90
7646;DHT22;3864;48.180;14.178;2022-11-09T11:56:23;7.90;99.90
7646;DHT22;3864;48.180;14.178;2022-11-09T11:59:26;7.80;99.90
7646;DHT22;3864;48.180;14.178;2022-11-09T12:07:52;7.80;99.90
7646;DHT22;3864;48.180;14.178;2022-11-09T12:10:37;7.80;99.90
7646;DHT22;3864;48.180;14.178;2022-11-09T12:13:32;7.90;99.90
7646;DHT22;3864;48.180;14.178;2022-11-09T12:16:05;8.00;99.90
7646;DHT22;3864;48.180;14.178;2022-11-09T12:18:44;8.00;99.90
7646;DHT22;3864;48.180;14.178;2022-11-09T12:21:16;8.10;99.90
7646;DHT22;3864;48.180;14.178;2022-11-09T12:24:13;8.10;99.90
7646;DHT22;3864;48.180;14.178;2022-11-09T12:26:57;8.20;99.90
7646;DHT22;3864;48.180;14.178;2022-11-09T12:29:33;8.20;99.90
7646;DHT22;3864;48.180;14.178;2022-11-09T12:32:18;8.30;99.90
7646;DHT22;3864;48.180;14.178;2022-11-09T12:35:11;8.40;99.90
7646;DHT22;3864;48.180;14.178;2022-11-09T12:37:49;8.40;99.90
7646;DHT22;3864;48.180;14.178;2022-11-09T12:40:24;8.40;99.90
7646;DHT22;3864;48.180;14.178;2022-11-09T12:42:58;8.30;99.90
7646;DHT22;3864;48.180;14.178;2022-11-09T12:45:29;8.30;99.90
7646;DHT22;3864;48.180;14.178;2022-11-09T12:48:05;8.30;99.90
7646;DHT22;3864;48.180;14.178;2022-11-09T12:50:36;8.30;99.90
7646;DHT22;3864;48.180;14.178;2022-11-09T12:53:04;8.30;99.90
7646;DHT22;3864;48.180;14.178;2022-11-09T12:55:41;8.30;99.90
7646;DHT22;3864;48.180;14.178;2022-11-09T12:58:22;8.20;99.90
7646;DHT22;3864;48.180;14.178;2022-11-09T13:00:54;8.10;99.90
7646;DHT22;3864;48.180;14.178;2022-11-09T13:03:25;7.90;99.90
7646;DHT22;3864;48.180;14.178;2022-11-09T13:06:14;7.80;99.90
7646;DHT22;3864;48.180;14.178;2022-11-09T13:08:59;7.70;99.90
7646;DHT22;3864;48.180;14.178;2022-11-09T13:11:36;7.70;99.90
7646;DHT22;3864;48.180;14.178;2022-11-09T13:14:26;7.60;99.90
7646;DHT22;3864;48.180;14.178;2022-11-09T13:17:00;7.40;99.90
7646;DHT22;3864;48.180;14.178;2022-11-09T13:19:53;7.30;99.90
7646;DHT22;3864;48.180;14.178;2022-11-09T13:25:47;7.30;99.90
7646;DHT22;3864;48.180;14.178;2022-11-09T13:28:42;7.50;99.90
7646;DHT22;3864;48.180;14.178;2022-11-09T13:31:10;7.50;99.90
7646;DHT22;3864;48.180;14.178;2022-11-09T13:33:38;7.50;99.90
7646;DHT22;3864;48.180;14.178;2022-11-09T13:36:16;7.60;99.90
7646;DHT22;3864;48.180;14.178;2022-11-09T13:42:22;7.40;99.90
7646;DHT22;3864;48.180;14.178;2022-11-09T13:45:26;7.40;99.90
7646;DHT22;3864;48.180;14.178;2022-11-09T13:47:55;7.30;99.90
7646;DHT22;3864;48.180;14.178;2022-11-09T13:50:23;7.30;99.90
7646;DHT22;3864;48.180;14.178;2022-11-09T13:52:54;7.30;99.90
7646;DHT22;3864;48.180;14.178;2022-11-09T13:55:31;7.30;99.90
7646;DHT22;3864;48.180;14.178;2022-11-09T13:58:07;7.40;99.90
7646;DHT22;3864;48.180;14.178;2022-11-09T14:00:37;7.30;99.90
7646;DHT22;3864;48.180;14.178;2022-11-09T14:03:48;7.40;99.90
7646;DHT22;3864;48.180;14.178;2022-11-09T14:06:48;7.40;99.90
7646;DHT22;3864;48.180;14.178;2022-11-09T14:09:42;7.50;99.90
7646;DHT22;3864;48.180;14.178;2022-11-09T14:12:30;7.50;99.90
7646;DHT22;3864;48.180;14.178;2022-11-09T14:15:26;7.50;99.90
7646;DHT22;3864;48.180;14.178;2022-11-09T14:18:08;7.50;99.90
7646;DHT22;3864;48.180;14.178;2022-11-09T14:20:40;7.40;99.90
7646;DHT22;3864;48.180;14.178;2022-11-09T14:23:16;7.30;99.90
7646;DHT22;3864;48.180;14.178;2022-11-09T14:25:44;7.20;99.90
7646;DHT22;3864;48.180;14.178;2022-11-09T14:28:20;7.20;99.90
7646;DHT22;3864;48.180;14.178;2022-11-09T14:30:48;7.10;99.90
7646;DHT22;3864;48.180;14.178;2022-11-09T14:33:21;7.00;99.90
7646;DHT22;3864;48.180;14.178;2022-11-09T14:35:49;7.00;99.90
7646;DHT22;3864;48.180;14.178;2022-11-09T14:38:19;6.90;99.90
7646;DHT22;3864;48.180;14.178;2022-11-09T14:40:47;6.90;99.90
7646;DHT22;3864;48.180;14.178;2022-11-09T14:43:24;6.90;99.90
7646;DHT22;3864;48.180;14.178;2022-11-09T14:45:55;6.80;99.90
7646;DHT22;3864;48.180;14.178;2022-11-09T14:48:26;6.80;99.90
7646;DHT22;3864;48.180;14.178;2022-11-09T14:50:56;6.60;99.90
7646;DHT22;3864;48.180;14.178;2022-11-09T14:53:27;6.60;99.90
7646;DHT22;3864;48.180;14.178;2022-11-09T14:55:59;6.50;99.90
7646;DHT22;3864;48.180;14.178;2022-11-09T14:58:29;6.50;99.90
7646;DHT22;3864;48.180;14.178;2022-11-09T15:01:09;6.50;99.90
7646;DHT22;3864;48.180;14.178;2022-11-09T15:03:44;6.40;99.90
7646;DHT22;3864;48.180;14.178;2022-11-09T15:06:13;6.30;99.90
7646;DHT22;3864;48.180;14.178;2022-11-09T15:08:47;6.30;99.90
7646;DHT22;3864;48.180;14.178;2022-11-09T15:11:16;6.30;99.90
7646;DHT22;3864;48.180;14.178;2022-11-09T15:13:44;6.20;99.90
7646;DHT22;3864;48.180;14.178;2022-11-09T15:16:23;6.10;99.90
7646;DHT22;3864;48.180;14.178;2022-11-09T15:18:54;6.10;99.90
7646;DHT22;3864;48.180;14.178;2022-11-09T15:21:32;6.10;99.90
7646;DHT22;3864;48.180;14.178;2022-11-09T15:24:13;6.10;99.90
7646;DHT22;3864;48.180;14.178;2022-11-09T15:26:43;6.10;99.90
7646;DHT22;3864;48.180;14.178;2022-11-09T15:29:33;6.00;99.90
7646;DHT22;3864;48.180;14.178;2022-11-09T15:32:11;6.00;99.90
7646;DHT22;3864;48.180;14.178;2022-11-09T15:34:42;6.00;99.90
7646;DHT22;3864;48.180;14.178;2022-11-09T15:37:25;5.90;99.90
7646;DHT22;3864;48.180;14.178;2022-11-09T15:39:53;5.90;99.90
7646;DHT22;3864;48.180;14.178;2022-11-09T15:42:21;5.80;99.90
7646;DHT22;3864;48.180;14.178;2022-11-09T15:44:53;5.80;99.90
7646;DHT22;3864;48.180;14.178;2022-11-09T15:47:23;5.70;99.90
7646;DHT22;3864;48.180;14.178;2022-11-09T15:49:54;5.70;99.90
7646;DHT22;3864;48.180;14.178;2022-11-09T15:52:22;5.70;99.90
7646;DHT22;3864;48.180;14.178;2022-11-09T15:54:49;5.70;99.90
7646;DHT22;3864;48.180;14.178;2022-11-09T15:57:17;5.60;99.90
7646;DHT22;3864;48.180;14.178;2022-11-09T15:59:45;5.60;99.90
7646;DHT22;3864;48.180;14.178;2022-11-09T16:02:13;5.60;99.90
7646;DHT22;3864;48.180;14.178;2022-11-09T16:04:43;5.60;99.90
7646;DHT22;3864;48.180;14.178;2022-11-09T16:07:14;5.50;99.90
7646;DHT22;3864;48.180;14.178;2022-11-09T16:09:42;5.50;99.90
7646;DHT22;3864;48.180;14.178;2022-11-09T16:12:10;5.50;99.90
7646;DHT22;3864;48.180;14.178;2022-11-09T16:14:38;5.50;99.90
7646;DHT22;3864;48.180;14.178;2022-11-09T16:17:05;5.60;99.90
7646;DHT22;3864;48.180;14.178;2022-11-09T16:19:33;5.60;99.90
7646;DHT22;3864;48.180;14.178;2022-11-09T16:22:00;5.70;99.90
7646;DHT22;3864;48.180;14.178;2022-11-09T16:24:30;5.70;99.90
7646;DHT22;3864;48.180;14.178;2022-11-09T16:26:58;5.70;99.90
7646;DHT22;3864;48.180;14.178;2022-11-09T16:29:26;5.70;99.90
7646;DHT22;3864;48.180;14.178;2022-11-09T16:31:54;5.60;99.90
7646;DHT22;3864;48.180;14.178;2022-11-09T16:34:21;5.60;99.90
7646;DHT22;3864;48.180;14.178;2022-11-09T16:36:49;5.60;99.90
7646;DHT22;3864;48.180;14.178;2022-11-09T16:39:17;5.60;99.90
7646;DHT22;3864;48.180;14.178;2022-11-09T16:41:48;5.60;99.90
7646;DHT22;3864;48.180;14.178;2022-11-09T16:44:27;5.60;99.90
7646;DHT22;3864;48.180;14.178;2022-11-09T16:46:56;5.60;99.90
7646;DHT22;3864;48.180;14.178;2022-11-09T16:49:24;5.60;99.90
7646;DHT22;3864;48.180;14.178;2022-11-09T16:51:51;5.60;99.90
7646;DHT22;3864;48.180;14.178;2022-11-09T16:54:19;5.60;99.90